createdAt,value
2018-12-18T00:00:47.125Z,74.81
2018-12-18T00:01:47.037Z,74.43
2018-12-18T00:02:46.949Z,74.43
2018-12-18T00:03:46.864Z,74.62
2018-12-18T00:04:46.774Z,75.09
2018-12-18T00:05:46.687Z,74.62
2018-12-18T00:06:46.609Z,74.15
2018-12-18T00:07:46.514Z,74.43
2018-12-18T00:08:46.426Z,74.52
2018-12-18T00:09:46.339Z,74.43
2018-12-18T00:10:46.249Z,74.33
2018-12-18T00:11:46.163Z,74.15
2018-12-18T00:12:46.082Z,73.96
2018-12-18T00:13:45.989Z,73.96
2018-12-18T00:14:45.901Z,73.58
2018-12-18T00:15:45.814Z,73.68
2018-12-18T00:16:45.730Z,73.58
2018-12-18T00:17:45.641Z,73.58
2018-12-18T00:18:45.555Z,73.58
2018-12-18T00:19:45.466Z,73.49
2018-12-18T00:20:45.380Z,73.49
2018-12-18T00:21:45.290Z,73.58
2018-12-18T00:22:45.204Z,73.68
2018-12-18T00:23:45.119Z,73.68
2018-12-18T00:24:45.030Z,73.68
2018-12-18T00:25:44.944Z,73.86
2018-12-18T00:26:44.857Z,73.77
2018-12-18T00:27:44.769Z,74.62
2018-12-18T00:28:44.687Z,74.81
2018-12-18T00:29:44.598Z,74.24
2018-12-18T00:30:44.510Z,74.43
2018-12-18T00:31:44.423Z,73.96
2018-12-18T00:32:44.339Z,73.77
2018-12-18T00:33:46.178Z,74.24
2018-12-18T00:34:44.163Z,73.96
2018-12-18T00:35:44.073Z,73.86
2018-12-18T00:36:43.986Z,73.96
2018-12-18T00:37:43.898Z,74.15
2018-12-18T00:38:43.810Z,74.24
2018-12-18T00:39:43.722Z,73.77
2018-12-18T00:40:43.636Z,73.86
2018-12-18T00:41:43.552Z,73.77
2018-12-18T00:42:43.460Z,73.39
2018-12-18T00:43:43.382Z,73.68
2018-12-18T00:44:43.287Z,73.77
2018-12-18T00:45:43.201Z,73.20
2018-12-18T00:46:43.115Z,72.82
2018-12-18T00:47:43.027Z,73.39
2018-12-18T00:48:42.940Z,73.01
2018-12-18T00:49:42.852Z,73.20
2018-12-18T00:50:42.765Z,72.92
2018-12-18T00:51:42.678Z,72.92
2018-12-18T00:52:42.593Z,73.11
2018-12-18T00:53:42.548Z,73.11
2018-12-18T00:54:42.418Z,72.53
2018-12-18T00:55:42.328Z,72.63
2018-12-18T00:56:42.245Z,72.63
2018-12-18T00:57:42.159Z,72.63
2018-12-18T00:58:42.069Z,72.73
2018-12-18T00:59:41.981Z,72.82
2018-12-18T01:00:41.896Z,72.92
2018-12-18T01:01:41.809Z,72.63
2018-12-18T01:02:41.720Z,72.73
2018-12-18T01:03:41.634Z,72.73
2018-12-18T01:04:41.547Z,72.63
2018-12-18T01:05:41.462Z,72.63
2018-12-18T01:06:41.375Z,73.11
2018-12-18T01:07:41.284Z,73.49
2018-12-18T01:08:41.201Z,73.20
2018-12-18T01:09:41.112Z,73.11
2018-12-18T01:10:41.024Z,73.20
2018-12-18T01:11:40.937Z,73.20
2018-12-18T01:12:40.851Z,73.68
2018-12-18T01:13:40.765Z,73.77
2018-12-18T01:14:40.675Z,73.58
2018-12-18T01:15:40.591Z,73.68
2018-12-18T01:16:40.505Z,73.68
2018-12-18T01:17:40.415Z,73.68
2018-12-18T01:18:40.332Z,73.49
2018-12-18T01:19:40.245Z,73.68
2018-12-18T01:20:40.154Z,74.15
2018-12-18T01:21:40.068Z,73.39
2018-12-18T01:22:39.981Z,73.86
2018-12-18T01:23:39.892Z,73.30
2018-12-18T01:24:39.816Z,73.49
2018-12-18T01:25:39.721Z,73.30
2018-12-18T01:26:39.637Z,73.77
2018-12-18T01:27:39.546Z,73.68
2018-12-18T01:28:39.474Z,73.49
2018-12-18T01:29:39.372Z,73.77
2018-12-18T01:30:39.287Z,73.68
2018-12-18T01:31:39.207Z,73.77
2018-12-18T01:32:39.111Z,73.30
2018-12-18T01:33:39.030Z,73.58
2018-12-18T01:34:38.937Z,73.58
2018-12-18T01:35:38.850Z,73.49
2018-12-18T01:36:38.766Z,73.68
2018-12-18T01:37:38.678Z,73.58
2018-12-18T01:38:38.589Z,73.58
2018-12-18T01:39:38.504Z,73.68
2018-12-18T01:40:38.415Z,73.49
2018-12-18T01:41:38.327Z,73.86
2018-12-18T01:42:38.244Z,73.96
2018-12-18T01:43:38.158Z,73.77
2018-12-18T01:44:38.067Z,73.77
2018-12-18T01:45:37.984Z,74.43
2018-12-18T01:46:37.964Z,73.96
2018-12-18T01:47:37.806Z,73.96
2018-12-18T01:48:37.723Z,73.49
2018-12-18T01:49:37.633Z,73.58
2018-12-18T01:50:37.546Z,73.96
2018-12-18T01:51:37.459Z,73.49
2018-12-18T01:52:37.376Z,74.15
2018-12-18T01:53:37.289Z,73.77
2018-12-18T01:54:37.197Z,74.43
2018-12-18T01:55:37.112Z,74.24
2018-12-18T01:56:37.024Z,74.52
2018-12-18T01:57:36.937Z,74.33
2018-12-18T01:58:36.851Z,74.43
2018-12-18T01:59:36.770Z,74.52
2018-12-18T02:00:36.677Z,74.43
2018-12-18T02:01:36.590Z,74.24
2018-12-18T02:02:36.502Z,74.62
2018-12-18T02:03:36.416Z,74.62
2018-12-18T02:04:36.350Z,74.15
2018-12-18T02:05:36.245Z,74.33
2018-12-18T02:06:36.154Z,74.43
2018-12-18T02:07:36.068Z,74.43
2018-12-18T02:08:35.984Z,74.52
2018-12-18T02:09:35.901Z,74.81
2018-12-18T02:10:35.809Z,74.15
2018-12-18T02:11:35.719Z,74.24
2018-12-18T02:12:35.632Z,73.77
2018-12-18T02:13:35.550Z,73.86
2018-12-18T02:14:35.463Z,74.62
2018-12-18T02:15:35.373Z,74.43
2018-12-18T02:16:35.288Z,74.43
2018-12-18T02:17:35.197Z,74.24
2018-12-18T02:18:35.110Z,74.33
2018-12-18T02:19:35.023Z,74.62
2018-12-18T02:20:34.942Z,74.43
2018-12-18T02:21:34.850Z,74.43
2018-12-18T02:22:34.762Z,74.52
2018-12-18T02:23:34.677Z,74.33
2018-12-18T02:24:34.591Z,74.62
2018-12-18T02:25:34.501Z,74.81
2018-12-18T02:26:34.412Z,75.00
2018-12-18T02:27:34.329Z,75.00
2018-12-18T02:28:34.240Z,75.09
2018-12-18T02:29:34.156Z,75.19
2018-12-18T02:30:34.065Z,75.09
2018-12-18T02:31:33.980Z,75.19
2018-12-18T02:32:33.892Z,75.09
2018-12-18T02:33:33.805Z,74.62
2018-12-18T02:34:33.720Z,74.33
2018-12-18T02:35:33.632Z,74.33
2018-12-18T02:36:33.544Z,74.62
2018-12-18T02:37:33.460Z,74.62
2018-12-18T02:38:33.371Z,74.15
2018-12-18T02:39:33.287Z,74.33
2018-12-18T02:40:33.196Z,74.43
2018-12-18T02:41:33.121Z,74.33
2018-12-18T02:42:33.022Z,74.62
2018-12-18T02:43:32.935Z,74.43
2018-12-18T02:44:32.848Z,74.15
2018-12-18T02:45:32.762Z,74.33
2018-12-18T02:46:32.675Z,74.33
2018-12-18T02:47:32.590Z,74.33
2018-12-18T02:48:32.501Z,74.43
2018-12-18T02:49:32.412Z,73.90
2018-12-18T02:50:32.327Z,73.99
2018-12-18T02:51:32.239Z,74.09
2018-12-18T02:52:32.152Z,73.77
2018-12-18T02:53:32.074Z,73.86
2018-12-18T02:54:31.977Z,74.62
2018-12-18T02:55:31.891Z,74.47
2018-12-18T02:56:31.816Z,74.33
2018-12-18T02:57:31.720Z,74.43
2018-12-18T02:58:31.632Z,74.71
2018-12-18T02:59:31.545Z,74.33
2018-12-18T03:00:31.458Z,74.47
2018-12-18T03:01:31.371Z,74.47
2018-12-18T03:02:31.283Z,74.24
2018-12-18T03:03:31.198Z,74.56
2018-12-18T03:04:31.111Z,74.66
2018-12-18T03:05:38.190Z,75.04
2018-12-18T03:07:34.866Z,75.04
2018-12-18T03:08:34.730Z,74.85
2018-12-18T03:10:38.532Z,75.42
2018-12-18T03:11:38.438Z,75.09
2018-12-18T03:12:38.352Z,75.98
2018-12-18T03:13:38.266Z,75.98
2018-12-18T03:14:38.176Z,75.89
2018-12-18T03:15:38.090Z,75.98
2018-12-18T03:16:38.003Z,76.27
2018-12-18T03:17:37.918Z,76.27
2018-12-18T03:18:37.831Z,76.55
2018-12-18T03:19:37.744Z,76.55
2018-12-18T03:20:37.656Z,75.98
2018-12-18T03:21:37.568Z,75.79
2018-12-18T03:22:37.483Z,75.98
2018-12-18T03:23:37.394Z,75.85
2018-12-18T03:24:37.310Z,76.08
2018-12-18T03:25:37.221Z,75.98
2018-12-18T03:26:37.134Z,76.08
2018-12-18T03:27:37.045Z,75.79
2018-12-18T03:28:36.958Z,75.98
2018-12-18T03:29:36.871Z,75.98
2018-12-18T03:30:36.785Z,75.70
2018-12-18T03:31:36.700Z,75.98
2018-12-18T03:32:36.617Z,75.79
2018-12-18T03:33:36.523Z,75.79
2018-12-18T03:34:36.438Z,76.08
2018-12-18T03:35:36.351Z,76.08
2018-12-18T03:36:36.263Z,76.08
2018-12-18T03:37:36.175Z,76.08
2018-12-18T03:38:36.088Z,75.79
2018-12-18T03:39:36.000Z,75.89
2018-12-18T03:40:35.917Z,75.79
2018-12-18T03:41:35.827Z,75.79
2018-12-18T03:42:35.744Z,75.70
2018-12-18T03:43:35.654Z,75.79
2018-12-18T03:44:35.568Z,76.36
2018-12-18T03:45:35.478Z,76.17
2018-12-18T03:46:35.391Z,76.04
2018-12-18T03:47:35.306Z,75.98
2018-12-18T03:48:35.219Z,75.66
2018-12-18T03:49:35.134Z,75.85
2018-12-18T03:50:35.046Z,76.65
2018-12-18T03:51:34.959Z,75.98
2018-12-18T03:52:34.874Z,75.79
2018-12-18T03:53:34.786Z,75.47
2018-12-18T03:54:34.700Z,75.79
2018-12-18T03:55:34.615Z,75.79
2018-12-18T03:56:34.525Z,75.89
2018-12-18T03:57:34.441Z,75.95
2018-12-18T03:58:34.348Z,75.57
2018-12-18T03:59:34.266Z,76.08
2018-12-18T04:00:34.176Z,75.85
2018-12-18T04:01:34.089Z,75.95
2018-12-18T04:02:34.003Z,76.04
2018-12-18T04:03:33.915Z,75.98
2018-12-18T04:04:35.760Z,75.95
2018-12-18T04:05:33.743Z,75.95
2018-12-18T04:06:33.654Z,75.76
2018-12-18T04:07:33.575Z,75.85
2018-12-18T04:08:33.481Z,75.98
2018-12-18T04:09:33.395Z,75.85
2018-12-18T04:10:33.308Z,75.89
2018-12-18T04:11:33.224Z,75.89
2018-12-18T04:12:33.131Z,76.08
2018-12-18T04:13:33.047Z,75.70
2018-12-18T04:14:32.959Z,75.89
2018-12-18T04:15:32.871Z,76.08
2018-12-18T04:16:32.786Z,76.17
2018-12-18T04:17:32.696Z,76.17
2018-12-18T04:18:32.670Z,75.79
2018-12-18T04:19:32.522Z,76.93
2018-12-18T04:20:32.437Z,76.55
2018-12-18T04:21:32.347Z,76.27
2018-12-18T04:22:32.262Z,76.36
2018-12-18T04:23:32.175Z,76.46
2018-12-18T04:24:32.089Z,76.84
2018-12-18T04:25:32.006Z,76.84
2018-12-18T04:26:31.914Z,76.65
2018-12-18T04:27:31.826Z,76.84
2018-12-18T04:28:31.741Z,77.69
2018-12-18T04:29:31.652Z,77.78
2018-12-18T04:30:31.570Z,77.88
2018-12-18T04:31:31.482Z,77.50
2018-12-18T04:32:31.395Z,77.69
2018-12-18T04:33:31.308Z,77.88
2018-12-18T04:34:31.219Z,77.03
2018-12-18T04:35:31.137Z,77.31
2018-12-18T04:36:31.048Z,77.31
2018-12-18T04:37:30.957Z,77.03
2018-12-18T04:38:30.872Z,77.31
2018-12-18T04:39:30.783Z,77.59
2018-12-18T04:40:30.699Z,77.59
2018-12-18T04:41:30.610Z,77.97
2018-12-18T04:42:30.523Z,77.88
2018-12-18T04:43:30.440Z,77.12
2018-12-18T04:44:30.352Z,77.03
2018-12-18T04:45:30.262Z,77.22
2018-12-18T04:46:30.174Z,76.93
2018-12-18T04:47:30.089Z,77.78
2018-12-18T04:48:30.001Z,77.69
2018-12-18T04:49:29.915Z,77.97
2018-12-18T04:50:29.827Z,77.78
2018-12-18T04:51:29.751Z,77.59
2018-12-18T04:52:29.653Z,77.59
2018-12-18T04:53:29.567Z,77.50
2018-12-18T04:54:29.482Z,77.69
2018-12-18T04:55:29.393Z,77.88
2018-12-18T04:56:29.307Z,77.97
2018-12-18T04:57:29.220Z,77.59
2018-12-18T04:58:29.133Z,78.26
2018-12-18T04:59:29.047Z,78.35
2018-12-18T05:00:28.956Z,78.35
2018-12-18T05:01:28.874Z,77.59
2018-12-18T05:02:28.787Z,77.69
2018-12-18T05:03:28.700Z,77.78
2018-12-18T05:04:28.612Z,77.88
2018-12-18T05:05:28.523Z,78.64
2018-12-18T05:06:28.436Z,78.45
2018-12-18T05:07:28.352Z,78.45
2018-12-18T05:08:28.267Z,77.59
2018-12-18T05:09:28.185Z,77.69
2018-12-18T05:10:28.090Z,77.78
2018-12-18T05:11:28.002Z,77.69
2018-12-18T05:12:27.916Z,77.59
2018-12-18T05:13:27.835Z,77.88
2018-12-18T05:14:27.739Z,77.97
2018-12-18T05:15:27.653Z,77.69
2018-12-18T05:16:27.570Z,78.07
2018-12-18T05:17:27.481Z,77.03
2018-12-18T05:18:27.392Z,77.03
2018-12-18T05:19:27.311Z,77.69
2018-12-18T05:20:27.227Z,77.88
2018-12-18T05:21:27.133Z,77.78
2018-12-18T05:22:27.047Z,78.07
2018-12-18T05:23:26.960Z,77.97
2018-12-18T05:24:26.874Z,77.69
2018-12-18T05:25:26.786Z,77.40
2018-12-18T05:26:26.700Z,77.69
2018-12-18T05:27:26.609Z,77.78
2018-12-18T05:28:26.525Z,77.59
2018-12-18T05:29:26.440Z,77.97
2018-12-18T05:30:26.357Z,77.59
2018-12-18T05:31:26.265Z,77.78
2018-12-18T05:32:26.180Z,77.88
2018-12-18T05:33:26.092Z,77.97
2018-12-18T05:34:26.003Z,77.59
2018-12-18T05:35:25.917Z,77.50
2018-12-18T05:36:26.021Z,77.31
2018-12-18T05:37:25.741Z,77.31
2018-12-18T05:38:25.657Z,77.69
2018-12-18T05:39:25.569Z,77.78
2018-12-18T05:40:25.484Z,77.88
2018-12-18T05:41:25.397Z,77.78
2018-12-18T05:42:25.306Z,78.07
2018-12-18T05:43:25.226Z,77.69
2018-12-18T05:44:25.144Z,77.88
2018-12-18T05:45:25.045Z,77.59
2018-12-18T05:46:24.962Z,77.69
2018-12-18T05:47:24.880Z,77.78
2018-12-18T05:48:24.787Z,77.69
2018-12-18T05:49:24.699Z,78.16
2018-12-18T05:50:24.617Z,78.26
2018-12-18T05:51:24.528Z,78.54
2018-12-18T05:52:24.439Z,78.35
2018-12-18T05:53:24.353Z,77.50
2018-12-18T05:54:24.264Z,77.59
2018-12-18T05:55:24.184Z,77.88
2018-12-18T05:56:24.093Z,77.69
2018-12-18T05:57:24.007Z,77.69
2018-12-18T05:58:23.919Z,77.59
2018-12-18T05:59:23.830Z,77.78
2018-12-18T06:00:23.745Z,77.50
2018-12-18T06:01:23.660Z,77.69
2018-12-18T06:02:23.569Z,77.59
2018-12-18T06:03:23.484Z,77.88
2018-12-18T06:04:23.397Z,77.69
2018-12-18T06:05:23.310Z,77.88
2018-12-18T06:06:23.223Z,77.59
2018-12-18T06:07:23.137Z,77.69
2018-12-18T06:08:23.054Z,77.40
2018-12-18T06:09:22.961Z,77.69
2018-12-18T06:10:22.875Z,77.59
2018-12-18T06:11:22.790Z,77.59
2018-12-18T06:12:22.701Z,77.88
2018-12-18T06:13:22.614Z,77.97
2018-12-18T06:14:22.537Z,77.12
2018-12-18T06:15:22.443Z,77.12
2018-12-18T06:16:22.360Z,77.22
2018-12-18T06:17:22.305Z,77.31
2018-12-18T06:18:22.179Z,77.22
2018-12-18T06:19:22.096Z,77.88
2018-12-18T06:20:22.008Z,77.97
2018-12-18T06:21:21.919Z,77.78
2018-12-18T06:22:21.835Z,78.07
2018-12-18T06:23:21.749Z,77.12
2018-12-18T06:24:21.665Z,77.03
2018-12-18T06:25:21.579Z,77.69
2018-12-18T06:26:21.492Z,77.50
2018-12-18T06:27:21.400Z,77.69
2018-12-18T06:28:21.324Z,77.69
2018-12-18T06:29:21.225Z,77.69
2018-12-18T06:30:21.143Z,77.88
2018-12-18T06:31:21.061Z,78.16
2018-12-18T06:32:20.965Z,77.69
2018-12-18T06:33:20.879Z,77.97
2018-12-18T06:34:20.792Z,77.69
2018-12-18T06:35:20.705Z,77.69
2018-12-18T06:36:20.618Z,77.97
2018-12-18T06:37:20.532Z,77.88
2018-12-18T06:38:20.444Z,77.59
2018-12-18T06:39:20.401Z,77.88
2018-12-18T06:40:20.271Z,77.69
2018-12-18T06:41:20.190Z,77.69
2018-12-18T06:42:20.101Z,77.50
2018-12-18T06:43:20.010Z,77.59
2018-12-18T06:44:19.925Z,77.88
2018-12-18T06:45:19.898Z,77.59
2018-12-18T06:46:19.750Z,77.88
2018-12-18T06:47:19.677Z,77.03
2018-12-18T06:48:19.576Z,77.03
2018-12-18T06:49:19.556Z,77.78
2018-12-18T06:50:19.403Z,77.78
2018-12-18T06:51:19.317Z,77.97
2018-12-18T06:52:19.228Z,77.59
2018-12-18T06:53:19.146Z,77.69
2018-12-18T06:54:19.054Z,77.31
2018-12-18T06:55:18.988Z,77.69
2018-12-18T06:56:18.885Z,78.16
2018-12-18T06:57:18.793Z,78.26
2018-12-18T06:58:18.706Z,78.16
2018-12-18T06:59:18.626Z,78.07
2018-12-18T07:00:18.534Z,77.88
2018-12-18T07:01:18.449Z,78.26
2018-12-18T07:02:18.360Z,78.45
2018-12-18T07:03:18.273Z,78.07
2018-12-18T07:04:18.187Z,78.16
2018-12-18T07:05:18.098Z,78.54
2018-12-18T07:06:18.041Z,78.26
2018-12-18T07:07:17.946Z,78.45
2018-12-18T07:08:17.895Z,78.35
2018-12-18T07:09:17.808Z,78.45
2018-12-18T07:10:17.680Z,78.35
2018-12-18T07:11:17.584Z,78.83
2018-12-18T07:12:17.492Z,78.83
2018-12-18T07:13:17.405Z,77.97
2018-12-18T07:14:17.323Z,78.26
2018-12-18T07:15:17.232Z,77.97
2018-12-18T07:16:17.146Z,78.16
2018-12-18T07:17:17.058Z,78.16
2018-12-18T07:18:16.970Z,77.97
2018-12-18T07:19:16.885Z,78.26
2018-12-18T07:20:16.814Z,77.59
2018-12-18T07:21:16.711Z,78.64
2018-12-18T07:22:16.624Z,78.16
2018-12-18T07:23:16.538Z,78.26
2018-12-18T07:24:16.454Z,77.97
2018-12-18T07:25:16.381Z,77.59
2018-12-18T07:26:16.292Z,77.40
2018-12-18T07:27:16.191Z,77.59
2018-12-18T07:28:16.106Z,77.69
2018-12-18T07:29:16.017Z,77.88
2018-12-18T07:30:15.990Z,77.59
2018-12-18T07:31:15.921Z,77.59
2018-12-18T07:32:15.823Z,77.59
2018-12-18T07:33:15.716Z,78.54
2018-12-18T07:34:15.635Z,77.50
2018-12-18T07:35:15.563Z,77.88
2018-12-18T07:36:15.462Z,77.88
2018-12-18T07:37:15.324Z,78.26
2018-12-18T07:38:15.237Z,78.45
2018-12-18T07:39:15.153Z,77.97
2018-12-18T07:40:15.063Z,77.03
2018-12-18T07:41:14.977Z,77.40
2018-12-18T07:42:14.892Z,77.22
2018-12-18T07:43:14.803Z,77.22
2018-12-18T07:44:14.728Z,76.84
2018-12-18T07:45:14.632Z,76.74
2018-12-18T07:46:14.542Z,76.65
2018-12-18T07:47:14.457Z,76.74
2018-12-18T07:48:14.370Z,76.84
2018-12-18T07:49:14.281Z,76.46
2018-12-18T07:50:14.197Z,77.03
2018-12-18T07:51:14.113Z,76.84
2018-12-18T07:52:14.021Z,76.74
2018-12-18T07:53:13.935Z,76.84
2018-12-18T07:54:13.850Z,77.31
2018-12-18T07:55:13.760Z,76.65
2018-12-18T07:56:13.675Z,76.74
2018-12-18T07:57:13.589Z,77.31
2018-12-18T07:58:13.501Z,76.93
2018-12-18T07:59:13.472Z,77.03
2018-12-18T08:00:13.329Z,77.12
2018-12-18T08:01:13.243Z,77.40
2018-12-18T08:02:13.187Z,77.12
2018-12-18T08:03:13.102Z,77.12
2018-12-18T08:04:13.649Z,76.84
2018-12-18T08:05:12.897Z,76.93
2018-12-18T08:06:12.808Z,76.84
2018-12-18T08:07:12.720Z,76.84
2018-12-18T08:08:12.633Z,76.84
2018-12-18T08:09:12.548Z,76.84
2018-12-18T08:10:12.462Z,76.84
2018-12-18T08:11:12.380Z,76.93
2018-12-18T08:12:12.287Z,76.84
2018-12-18T08:13:12.198Z,76.84
2018-12-18T08:14:12.114Z,77.22
2018-12-18T08:15:12.024Z,77.31
2018-12-18T08:16:11.962Z,77.22
2018-12-18T08:17:11.850Z,77.03
2018-12-18T08:18:11.768Z,77.22
2018-12-18T08:19:11.681Z,77.12
2018-12-18T08:20:11.594Z,77.40
2018-12-18T08:21:11.519Z,77.03
2018-12-18T08:22:11.419Z,77.97
2018-12-18T08:23:11.337Z,77.78
2018-12-18T08:24:11.250Z,77.12
2018-12-18T08:25:11.160Z,77.12
2018-12-18T08:26:11.075Z,77.22
2018-12-18T08:27:11.037Z,77.97
2018-12-18T08:28:10.938Z,77.69
2018-12-18T08:29:10.864Z,77.59
2018-12-18T08:30:10.795Z,77.59
2018-12-18T08:31:10.690Z,77.69
2018-12-18T08:32:10.612Z,77.59
2018-12-18T08:33:10.528Z,77.69
2018-12-18T08:34:10.442Z,77.97
2018-12-18T08:35:10.366Z,77.88
2018-12-18T08:36:10.267Z,77.78
2018-12-18T08:37:10.146Z,77.69
2018-12-18T08:38:10.081Z,77.78
2018-12-18T08:39:10.009Z,78.26
2018-12-18T08:40:09.862Z,78.26
2018-12-18T08:41:09.773Z,77.59
2018-12-18T08:42:09.687Z,77.69
2018-12-18T08:43:09.601Z,77.69
2018-12-18T08:44:09.515Z,77.88
2018-12-18T08:45:09.428Z,77.31
2018-12-18T08:46:10.433Z,77.03
2018-12-18T08:47:09.256Z,77.12
2018-12-18T08:48:09.169Z,77.22
2018-12-18T08:49:09.084Z,77.31
2018-12-18T08:50:08.997Z,76.84
2018-12-18T08:51:08.911Z,77.22
2018-12-18T08:52:08.828Z,77.31
2018-12-18T08:53:08.737Z,76.65
2018-12-18T08:54:08.651Z,76.93
2018-12-18T08:55:08.564Z,77.03
2018-12-18T08:56:08.481Z,76.84
2018-12-18T08:57:08.390Z,77.50
2018-12-18T08:58:08.307Z,77.31
2018-12-18T08:59:08.220Z,76.93
2018-12-18T09:00:08.133Z,76.84
2018-12-18T09:01:08.045Z,76.84
2018-12-18T09:02:07.972Z,77.22
2018-12-18T09:03:07.876Z,76.55
2018-12-18T09:04:07.794Z,76.46
2018-12-18T09:05:07.701Z,76.93
2018-12-18T09:06:14.805Z,76.93
2018-12-18T09:08:11.581Z,76.84
2018-12-18T09:09:11.325Z,76.46
2018-12-18T09:11:15.166Z,76.46
2018-12-18T09:12:15.032Z,76.55
2018-12-18T09:13:14.950Z,76.93
2018-12-18T09:14:14.857Z,76.55
2018-12-18T09:15:14.772Z,76.65
2018-12-18T09:16:14.686Z,76.65
2018-12-18T09:17:14.597Z,76.93
2018-12-18T09:18:14.511Z,76.65
2018-12-18T09:19:14.450Z,76.65
2018-12-18T09:20:14.340Z,76.46
2018-12-18T09:21:14.258Z,76.55
2018-12-18T09:22:14.170Z,76.84
2018-12-18T09:23:14.080Z,76.59
2018-12-18T09:24:13.994Z,76.84
2018-12-18T09:25:13.909Z,76.55
2018-12-18T09:26:13.820Z,76.40
2018-12-18T09:27:13.733Z,76.84
2018-12-18T09:28:13.648Z,76.97
2018-12-18T09:29:13.561Z,76.93
2018-12-18T09:30:13.474Z,76.78
2018-12-18T09:31:13.389Z,77.03
2018-12-18T09:32:13.357Z,76.87
2018-12-18T09:33:13.223Z,76.87
2018-12-18T09:34:13.129Z,76.84
2018-12-18T09:35:13.043Z,76.50
2018-12-18T09:36:12.961Z,76.74
2018-12-18T09:37:12.872Z,76.78
2018-12-18T09:38:12.783Z,76.78
2018-12-18T09:39:12.702Z,76.78
2018-12-18T09:40:12.610Z,76.87
2018-12-18T09:41:12.525Z,77.54
2018-12-18T09:42:12.439Z,77.54
2018-12-18T09:43:12.353Z,77.73
2018-12-18T09:44:12.265Z,78.30
2018-12-18T09:45:12.180Z,78.39
2018-12-18T09:46:12.092Z,78.39
2018-12-18T09:47:12.008Z,78.39
2018-12-18T09:48:11.922Z,78.30
2018-12-18T09:49:11.835Z,78.20
2018-12-18T09:50:11.752Z,77.92
2018-12-18T09:51:11.663Z,77.73
2018-12-18T09:52:11.577Z,77.54
2018-12-18T09:53:11.490Z,77.64
2018-12-18T09:54:11.403Z,77.73
2018-12-18T09:55:11.316Z,78.20
2018-12-18T09:56:11.233Z,78.20
2018-12-18T09:57:11.145Z,78.11
2018-12-18T09:58:11.061Z,78.30
2018-12-18T09:59:10.973Z,78.30
2018-12-18T10:00:10.947Z,78.11
2018-12-18T10:01:10.806Z,78.11
2018-12-18T10:02:10.712Z,78.30
2018-12-18T10:03:10.628Z,78.30
2018-12-18T10:04:10.540Z,78.67
2018-12-18T10:05:10.477Z,78.49
2018-12-18T10:06:10.387Z,78.30
2018-12-18T10:07:10.285Z,78.30
2018-12-18T10:08:10.196Z,78.58
2018-12-18T10:09:10.111Z,78.49
2018-12-18T10:10:10.024Z,78.58
2018-12-18T10:11:09.940Z,78.58
2018-12-18T10:12:09.855Z,78.49
2018-12-18T10:13:09.766Z,78.39
2018-12-18T10:14:09.682Z,78.67
2018-12-18T10:15:09.594Z,78.77
2018-12-18T10:16:09.632Z,78.49
2018-12-18T10:17:09.427Z,78.49
2018-12-18T10:18:09.335Z,78.49
2018-12-18T10:19:09.250Z,78.77
2018-12-18T10:20:09.165Z,78.49
2018-12-18T10:21:09.080Z,78.67
2018-12-18T10:22:08.996Z,78.87
2018-12-18T10:23:08.906Z,79.25
2018-12-18T10:24:08.821Z,78.96
2018-12-18T10:25:08.734Z,79.15
2018-12-18T10:26:08.650Z,79.25
2018-12-18T10:27:08.563Z,78.87
2018-12-18T10:28:08.502Z,79.34
2018-12-18T10:29:08.390Z,79.91
2018-12-18T10:30:08.306Z,79.82
2018-12-18T10:31:08.224Z,79.72
2018-12-18T10:32:08.134Z,79.63
2018-12-18T10:33:08.048Z,79.44
2018-12-18T10:34:07.963Z,80.10
2018-12-18T10:35:07.877Z,80.48
2018-12-18T10:36:07.796Z,80.86
2018-12-18T10:37:07.705Z,80.86
2018-12-18T10:38:07.622Z,80.86
2018-12-18T10:39:07.539Z,80.76
2018-12-18T10:40:07.469Z,80.48
2018-12-18T10:41:07.367Z,80.67
2018-12-18T10:42:07.277Z,80.90
2018-12-18T10:43:07.193Z,81.56
2018-12-18T10:44:07.106Z,82.28
2018-12-18T10:45:13.593Z,81.99
2018-12-18T10:46:06.934Z,81.33
2018-12-18T10:47:06.855Z,82.09
2018-12-18T10:48:06.762Z,81.09
2018-12-18T10:49:06.687Z,81.52
2018-12-18T10:50:06.597Z,81.33
2018-12-18T10:51:06.507Z,81.71
2018-12-18T10:52:06.472Z,81.43
2018-12-18T10:53:06.338Z,81.71
2018-12-18T10:54:06.250Z,81.62
2018-12-18T10:55:06.163Z,81.90
2018-12-18T10:56:06.080Z,82.28
2018-12-18T10:57:05.995Z,81.71
2018-12-18T10:58:05.910Z,81.99
2018-12-18T10:59:05.825Z,82.09
2018-12-18T11:00:05.751Z,82.18
2018-12-18T11:01:05.653Z,82.37
2018-12-18T11:02:05.566Z,81.90
2018-12-18T11:03:05.488Z,81.71
2018-12-18T11:04:05.395Z,81.52
2018-12-18T11:05:05.310Z,81.81
2018-12-18T11:06:09.826Z,81.85
2018-12-18T11:07:05.794Z,81.71
2018-12-18T11:08:05.053Z,81.90
2018-12-18T11:09:05.044Z,81.62
2018-12-18T11:10:04.883Z,81.33
2018-12-18T11:11:04.798Z,81.62
2018-12-18T11:12:04.712Z,80.76
2018-12-18T11:13:04.627Z,81.14
2018-12-18T11:14:04.541Z,81.05
2018-12-18T11:15:04.453Z,81.14
2018-12-18T11:16:04.370Z,81.14
2018-12-18T11:17:04.284Z,81.52
2018-12-18T11:18:04.199Z,81.71
2018-12-18T11:19:04.147Z,81.62
2018-12-18T11:20:04.031Z,81.24
2018-12-18T11:21:03.941Z,80.76
2018-12-18T11:22:03.856Z,81.14
2018-12-18T11:23:03.780Z,81.05
2018-12-18T11:24:03.689Z,81.52
2018-12-18T11:25:03.614Z,81.81
2018-12-18T11:26:03.564Z,81.52
2018-12-18T11:27:03.439Z,81.52
2018-12-18T11:28:03.344Z,81.81
2018-12-18T11:29:03.260Z,80.95
2018-12-18T11:30:03.225Z,81.24
2018-12-18T11:31:03.088Z,81.43
2018-12-18T11:32:03.041Z,81.81
2018-12-18T11:33:02.916Z,81.43
2018-12-18T11:34:02.830Z,81.62
2018-12-18T11:35:02.743Z,81.43
2018-12-18T11:36:02.659Z,81.71
2018-12-18T11:37:02.581Z,81.62
2018-12-18T11:38:02.495Z,81.62
2018-12-18T11:39:02.406Z,81.75
2018-12-18T11:40:02.317Z,81.81
2018-12-18T11:41:02.236Z,81.71
2018-12-18T11:42:02.146Z,81.71
2018-12-18T11:43:02.132Z,82.28
2018-12-18T11:44:02.045Z,82.32
2018-12-18T11:45:01.963Z,81.81
2018-12-18T11:46:01.868Z,81.99
2018-12-18T11:47:01.753Z,81.99
2018-12-18T11:48:02.277Z,81.33
2018-12-18T11:49:01.616Z,81.90
2018-12-18T11:50:01.539Z,81.71
2018-12-18T11:51:01.443Z,82.85
2018-12-18T11:52:02.276Z,82.79
2018-12-18T11:53:01.270Z,83.04
2018-12-18T11:54:01.189Z,82.60
2018-12-18T11:55:01.098Z,82.51
2018-12-18T11:56:01.019Z,82.37
2018-12-18T11:57:00.865Z,82.32
2018-12-18T11:58:00.777Z,82.94
2018-12-18T11:59:00.693Z,83.04
2018-12-18T12:00:00.608Z,82.66
2018-12-18T12:01:00.522Z,82.32
2018-12-18T12:02:00.438Z,82.18
2018-12-18T12:03:00.416Z,82.47
2018-12-18T12:04:00.266Z,82.37
2018-12-18T12:05:00.181Z,82.94
2018-12-18T12:06:00.094Z,82.85
2018-12-18T12:07:00.012Z,82.85
2018-12-18T12:07:59.935Z,82.18
2018-12-18T12:08:59.841Z,82.23
2018-12-18T12:09:59.751Z,82.37
2018-12-18T12:10:59.665Z,82.42
2018-12-18T12:11:59.582Z,82.94
2018-12-18T12:12:59.496Z,83.32
2018-12-18T12:13:59.411Z,83.32
2018-12-18T12:14:59.323Z,82.94
2018-12-18T12:15:59.237Z,82.98
2018-12-18T12:16:59.152Z,83.08
2018-12-18T12:17:59.070Z,83.61
2018-12-18T12:18:58.981Z,83.70
2018-12-18T12:19:58.894Z,83.42
2018-12-18T12:20:58.834Z,83.80
2018-12-18T12:21:58.724Z,84.17
2018-12-18T12:22:59.287Z,83.89
2018-12-18T12:23:58.618Z,83.51
2018-12-18T12:24:59.286Z,83.80
2018-12-18T12:25:59.279Z,83.42
2018-12-18T12:26:58.359Z,83.80
2018-12-18T12:27:58.274Z,83.51
2018-12-18T12:28:59.773Z,83.70
2018-12-18T12:29:58.105Z,83.70
2018-12-18T12:30:58.790Z,83.04
2018-12-18T12:31:57.933Z,82.37
2018-12-18T12:32:57.872Z,82.75
2018-12-18T12:33:58.282Z,82.28
2018-12-18T12:34:57.674Z,82.85
2018-12-18T12:35:57.591Z,82.56
2018-12-18T12:36:57.497Z,82.85
2018-12-18T12:37:57.415Z,83.23
2018-12-18T12:38:57.334Z,83.42
2018-12-18T12:39:57.789Z,82.37
2018-12-18T12:40:57.160Z,82.85
2018-12-18T12:41:57.076Z,82.18
2018-12-18T12:42:59.791Z,82.09
2018-12-18T12:43:56.836Z,81.90
2018-12-18T12:44:56.751Z,81.43
2018-12-18T12:45:56.666Z,81.43
2018-12-18T12:46:56.576Z,81.52
2018-12-18T12:47:56.491Z,81.52
2018-12-18T12:48:56.405Z,81.52
2018-12-18T12:49:56.319Z,81.62
2018-12-18T12:50:56.235Z,81.81
2018-12-18T12:51:56.146Z,81.71
2018-12-18T12:52:56.062Z,81.52
2018-12-18T12:53:55.977Z,82.18
2018-12-18T12:54:55.888Z,81.90
2018-12-18T12:55:55.805Z,82.09